createdAt,value
2017-12-10T00:00:02.982Z,0.96
2017-12-10T00:02:37.362Z,0.93
2017-12-10T00:05:16.038Z,0.97
2017-12-10T00:07:50.455Z,0.92
2017-12-10T00:10:24.598Z,0.90
2017-12-10T00:12:58.749Z,0.89
2017-12-10T00:15:32.970Z,0.86
2017-12-10T00:18:07.085Z,0.92
2017-12-10T00:20:45.478Z,0.88
2017-12-10T00:23:21.062Z,0.72
2017-12-10T00:25:55.131Z,0.86
2017-12-10T00:28:29.126Z,0.40
2017-12-10T00:31:03.305Z,0.94
2017-12-10T00:33:37.834Z,0.86
2017-12-10T00:36:12.659Z,0.87
2017-12-10T00:38:47.294Z,0.85
2017-12-10T00:41:21.697Z,0.88
2017-12-10T00:43:55.849Z,0.84
2017-12-10T00:46:30.201Z,0.79
2017-12-10T00:49:04.470Z,0.81
2017-12-10T00:51:38.565Z,0.75
2017-12-10T00:54:12.721Z,0.75
2017-12-10T00:56:46.818Z,0.64
2017-12-10T00:59:20.892Z,0.72
2017-12-10T01:01:55.090Z,0.76
2017-12-10T01:04:29.690Z,0.76
2017-12-10T01:07:04.134Z,0.76
2017-12-10T01:09:38.737Z,0.78
2017-12-10T01:12:12.866Z,0.78
2017-12-10T01:14:47.005Z,0.77
2017-12-10T01:17:21.097Z,0.67
2017-12-10T01:19:55.253Z,0.79
2017-12-10T01:22:29.295Z,0.73
2017-12-10T01:25:04.785Z,0.77
2017-12-10T01:27:39.194Z,0.80
2017-12-10T01:30:15.922Z,0.86
2017-12-10T01:32:50.361Z,0.86
2017-12-10T01:35:24.489Z,0.78
2017-12-10T01:37:58.749Z,0.86
2017-12-10T01:40:34.970Z,0.84
2017-12-10T01:43:09.065Z,0.79
2017-12-10T01:45:43.098Z,0.85
2017-12-10T01:48:17.313Z,0.79
2017-12-10T01:50:51.517Z,0.80
2017-12-10T01:53:25.652Z,0.72
2017-12-10T01:55:59.851Z,0.64
2017-12-10T01:58:34.073Z,0.62
2017-12-10T02:01:08.258Z,0.60
2017-12-10T02:03:42.501Z,0.73
2017-12-10T02:06:17.385Z,0.78
2017-12-10T02:08:51.404Z,0.79
2017-12-10T02:11:25.558Z,0.78
2017-12-10T02:13:59.680Z,0.81
2017-12-10T02:16:33.899Z,0.65
2017-12-10T02:19:07.960Z,0.64
2017-12-10T02:21:42.050Z,0.55
2017-12-10T02:24:16.082Z,0.49
2017-12-10T02:26:50.123Z,0.45
2017-12-10T02:29:24.409Z,0.37
2017-12-10T02:31:58.873Z,0.44
2017-12-10T02:34:33.021Z,0.41
2017-12-10T02:37:07.185Z,0.46
2017-12-10T02:39:41.350Z,0.43
2017-12-10T02:42:15.419Z,0.43
2017-12-10T02:44:49.626Z,0.47
2017-12-10T02:47:23.762Z,0.44
2017-12-10T02:49:58.052Z,0.37
2017-12-10T02:52:32.130Z,0.31
2017-12-10T02:55:13.358Z,0.26
2017-12-10T02:57:47.729Z,0.27
2017-12-10T03:00:21.862Z,0.22
2017-12-10T03:02:55.919Z,0.24
2017-12-10T03:05:30.113Z,0.22
2017-12-10T03:08:04.386Z,0.25
2017-12-10T03:10:38.706Z,0.27
2017-12-10T03:13:12.865Z,0.32
2017-12-10T03:15:47.053Z,0.30
2017-12-10T03:18:21.095Z,0.21
2017-12-10T03:20:55.370Z,0.37
2017-12-10T03:23:29.530Z,0.32
2017-12-10T03:26:03.605Z,0.34
2017-12-10T03:28:37.758Z,0.42
2017-12-10T03:31:11.940Z,0.43
2017-12-10T03:33:45.750Z,0.47
2017-12-10T03:36:19.785Z,0.45
2017-12-10T03:38:53.927Z,0.55
2017-12-10T03:41:27.735Z,0.34
2017-12-10T03:44:01.758Z,0.61
2017-12-10T03:46:35.945Z,0.66
2017-12-10T03:49:10.078Z,0.67
2017-12-10T03:51:44.234Z,0.78
2017-12-10T03:54:18.389Z,0.80
2017-12-10T03:56:52.490Z,0.82
2017-12-10T03:59:26.753Z,0.79
2017-12-10T04:02:00.945Z,0.70
2017-12-10T04:04:35.130Z,0.80
2017-12-10T04:07:09.557Z,0.70
2017-12-10T04:09:43.750Z,0.89
2017-12-10T04:12:18.167Z,0.92
2017-12-10T04:14:52.256Z,1.00
2017-12-10T04:17:26.345Z,0.96
2017-12-10T04:20:00.496Z,0.97
2017-12-10T04:22:34.898Z,0.92
2017-12-10T04:25:14.917Z,0.90
2017-12-10T04:27:49.082Z,0.84
2017-12-10T04:30:23.133Z,0.83
2017-12-10T04:32:57.169Z,0.83
2017-12-10T04:35:31.303Z,0.73
2017-12-10T04:38:05.422Z,0.92
2017-12-10T04:40:39.498Z,0.95
2017-12-10T04:43:13.546Z,0.82
2017-12-10T04:45:47.622Z,0.78
2017-12-10T04:48:21.727Z,0.84
2017-12-10T04:50:55.825Z,0.73
2017-12-10T04:53:29.958Z,0.90
2017-12-10T04:56:04.061Z,1.01
2017-12-10T04:58:38.182Z,0.99
2017-12-10T05:01:12.227Z,0.95
2017-12-10T05:03:46.449Z,0.74
2017-12-10T05:06:20.450Z,0.64
2017-12-10T05:08:54.564Z,0.53
2017-12-10T05:11:28.670Z,0.51
2017-12-10T05:14:02.974Z,0.47
2017-12-10T05:16:37.158Z,0.36
2017-12-10T05:19:11.198Z,0.31
2017-12-10T05:21:45.326Z,0.28
2017-12-10T05:24:19.682Z,0.29
2017-12-10T05:26:54.057Z,0.13
2017-12-10T05:29:28.200Z,0.21
2017-12-10T05:32:02.267Z,0.30
2017-12-10T05:34:36.410Z,0.37
2017-12-10T05:37:10.511Z,0.33
2017-12-10T05:39:44.777Z,0.34
2017-12-10T05:42:19.161Z,0.49
2017-12-10T05:44:53.426Z,0.28
2017-12-10T05:47:27.575Z,0.26
2017-12-10T05:50:02.161Z,0.39
2017-12-10T05:52:36.642Z,0.24
2017-12-10T05:55:10.702Z,0.39
2017-12-10T05:57:44.875Z,0.44
2017-12-10T06:00:18.941Z,0.27
2017-12-10T06:02:53.097Z,0.50
2017-12-10T06:05:27.514Z,0.34
2017-12-10T06:08:01.738Z,0.09
2017-12-10T06:10:36.215Z,-0.04
2017-12-10T06:13:10.382Z,-0.12
2017-12-10T06:15:44.470Z,-0.26
2017-12-10T06:18:18.882Z,-0.38
2017-12-10T06:20:53.237Z,-0.41
2017-12-10T06:23:27.675Z,-0.34
2017-12-10T06:26:01.870Z,-0.28
2017-12-10T06:28:36.205Z,-0.28
2017-12-10T06:31:10.230Z,-0.35
2017-12-10T06:33:44.386Z,-0.29
2017-12-10T06:36:18.482Z,-0.42
2017-12-10T06:41:26.078Z,-0.46
2017-12-10T06:44:00.494Z,-0.49
2017-12-10T06:46:34.637Z,-0.45
2017-12-10T06:49:08.806Z,-0.35
2017-12-10T06:51:42.935Z,-0.40
2017-12-10T06:54:17.346Z,-0.61
2017-12-10T06:56:51.430Z,-0.54
2017-12-10T06:59:25.461Z,-0.59
2017-12-10T07:01:59.554Z,-0.57
2017-12-10T07:04:33.729Z,-0.30
2017-12-10T07:07:07.869Z,-0.46
2017-12-10T07:09:42.086Z,-0.52
2017-12-10T07:12:16.157Z,-0.54
2017-12-10T07:14:50.310Z,-0.50
2017-12-10T07:17:24.358Z,-0.38
2017-12-10T07:19:58.937Z,-0.46
2017-12-10T07:22:33.106Z,-0.40
2017-12-10T07:25:26.025Z,-0.22
2017-12-10T07:28:00.213Z,-0.36
2017-12-10T07:30:34.690Z,-0.39
2017-12-10T07:33:08.946Z,-0.26
2017-12-10T07:35:42.967Z,-0.26
2017-12-10T07:38:17.206Z,-0.23
2017-12-10T07:40:51.281Z,-0.33
2017-12-10T07:43:25.790Z,-0.10
2017-12-10T07:45:59.860Z,-0.15
2017-12-10T07:48:34.326Z,-0.09
2017-12-10T07:51:08.415Z,-0.14
2017-12-10T07:53:42.635Z,0.11
2017-12-10T07:56:16.726Z,0.10
2017-12-10T07:58:51.093Z,0.22
2017-12-10T08:01:25.442Z,0.42
2017-12-10T08:03:59.786Z,0.56
2017-12-10T08:06:34.154Z,0.67
2017-12-10T08:09:09.005Z,0.61
2017-12-10T08:11:43.439Z,0.29
2017-12-10T08:14:17.637Z,0.29
2017-12-10T08:16:52.875Z,0.23
2017-12-10T08:19:27.702Z,0.22
2017-12-10T08:22:01.974Z,0.28
2017-12-10T08:24:36.094Z,0.34
2017-12-10T08:27:10.330Z,0.47
2017-12-10T08:29:44.373Z,0.33
2017-12-10T08:32:18.733Z,0.51
2017-12-10T08:34:52.948Z,0.49
2017-12-10T08:37:27.346Z,0.58
2017-12-10T08:40:01.653Z,0.49
2017-12-10T08:42:35.753Z,0.68
2017-12-10T08:45:13.165Z,-0.21
2017-12-10T08:47:47.654Z,0.59
2017-12-10T08:50:21.763Z,0.70
2017-12-10T08:52:55.783Z,0.81
2017-12-10T08:55:30.132Z,0.70
2017-12-10T08:58:04.159Z,0.79
2017-12-10T09:00:38.228Z,0.81
2017-12-10T09:03:12.670Z,0.86
2017-12-10T09:05:47.071Z,0.78
2017-12-10T09:08:21.406Z,0.80
2017-12-10T09:10:55.997Z,0.82
2017-12-10T09:13:30.094Z,0.94
2017-12-10T09:16:04.172Z,0.85
2017-12-10T09:18:38.212Z,1.01
2017-12-10T09:21:12.323Z,0.98
2017-12-10T09:23:46.379Z,0.96
2017-12-10T09:26:20.586Z,0.97
2017-12-10T09:28:54.938Z,0.91
2017-12-10T09:31:29.333Z,1.06
2017-12-10T09:34:03.610Z,0.97
2017-12-10T09:36:37.722Z,1.10
2017-12-10T09:39:11.922Z,1.16
2017-12-10T09:41:46.116Z,1.25
2017-12-10T09:44:20.262Z,1.53
2017-12-10T09:46:54.282Z,1.55
2017-12-10T09:49:28.417Z,1.81
2017-12-10T09:52:02.490Z,1.78
2017-12-10T09:54:36.542Z,1.90
2017-12-10T09:57:10.588Z,1.72
2017-12-10T09:59:44.995Z,1.94
2017-12-10T10:02:19.032Z,2.15
2017-12-10T10:04:53.269Z,2.27
2017-12-10T10:07:27.314Z,2.56
2017-12-10T10:10:01.611Z,3.21
2017-12-10T10:12:35.815Z,4.36
2017-12-10T10:15:15.464Z,4.95
2017-12-10T10:17:49.621Z,5.67
2017-12-10T10:20:23.695Z,6.55
2017-12-10T10:22:58.285Z,6.97
2017-12-10T10:25:32.615Z,6.59
2017-12-10T10:28:06.829Z,6.98
2017-12-10T10:30:40.915Z,7.63
2017-12-10T10:33:16.266Z,8.07
2017-12-10T10:35:50.852Z,8.17
2017-12-10T10:38:24.863Z,7.45
2017-12-10T10:40:58.946Z,7.26
2017-12-10T10:43:32.966Z,6.58
2017-12-10T10:46:07.098Z,6.34
2017-12-10T10:48:41.339Z,5.53
2017-12-10T10:51:15.501Z,5.37
2017-12-10T10:53:49.609Z,5.36
2017-12-10T10:56:24.027Z,5.24
2017-12-10T10:58:58.642Z,5.18
2017-12-10T11:01:32.950Z,5.01
2017-12-10T11:04:07.393Z,4.87
2017-12-10T11:06:41.570Z,4.40
2017-12-10T11:09:16.342Z,4.30
2017-12-10T11:11:50.458Z,4.40
2017-12-10T11:14:25.466Z,4.52
2017-12-10T11:16:59.683Z,4.56
2017-12-10T11:19:33.875Z,4.72
2017-12-10T11:22:08.291Z,5.00
2017-12-10T11:24:42.413Z,4.92
2017-12-10T11:27:16.427Z,4.93
2017-12-10T11:29:50.673Z,5.21
2017-12-10T11:32:24.743Z,5.25
2017-12-10T11:34:59.209Z,5.33
2017-12-10T11:37:33.285Z,5.42
2017-12-10T11:40:13.838Z,5.67
2017-12-10T11:42:48.049Z,5.60
2017-12-10T11:45:22.207Z,5.80
2017-12-10T11:47:56.430Z,5.94
2017-12-10T11:50:30.826Z,6.01
2017-12-10T11:53:05.025Z,6.33
2017-12-10T11:55:39.143Z,6.46
2017-12-10T11:58:13.178Z,6.72
2017-12-10T12:00:47.626Z,6.96
2017-12-10T12:03:21.809Z,6.89
2017-12-10T12:05:56.029Z,6.85
2017-12-10T12:08:30.091Z,7.07
2017-12-10T12:11:04.112Z,6.90
2017-12-10T12:13:38.322Z,7.19
2017-12-10T12:16:12.440Z,6.93
2017-12-10T12:18:47.381Z,7.12
2017-12-10T12:21:21.416Z,7.08
2017-12-10T12:23:55.917Z,6.96
2017-12-10T12:26:30.310Z,6.44
2017-12-10T12:29:04.582Z,6.03
2017-12-10T12:31:38.758Z,6.03
2017-12-10T12:34:12.955Z,6.06
2017-12-10T12:36:47.117Z,6.58
2017-12-10T12:39:21.718Z,6.60
2017-12-10T12:41:56.062Z,6.79
2017-12-10T12:44:30.353Z,6.74
2017-12-10T12:47:04.761Z,6.62
2017-12-10T12:49:39.270Z,6.23
2017-12-10T12:52:13.378Z,6.07
2017-12-10T12:54:47.546Z,5.71
2017-12-10T12:57:21.596Z,5.58
2017-12-10T12:59:55.750Z,5.29
2017-12-10T13:02:30.278Z,5.10
2017-12-10T13:05:13.330Z,4.92
2017-12-10T13:07:47.390Z,4.74
2017-12-10T13:10:21.420Z,4.78
2017-12-10T13:12:55.657Z,4.62
2017-12-10T13:15:29.774Z,4.58
2017-12-10T13:18:03.619Z,4.38
2017-12-10T13:20:37.753Z,4.32
2017-12-10T13:23:11.821Z,4.31
2017-12-10T13:25:45.922Z,4.25
2017-12-10T13:28:19.878Z,4.16
2017-12-10T13:30:54.701Z,3.92
2017-12-10T13:33:28.830Z,4.04
2017-12-10T13:36:03.257Z,3.88
2017-12-10T13:38:37.467Z,3.39
2017-12-10T13:41:11.376Z,3.76
2017-12-10T13:43:45.860Z,3.72
2017-12-10T13:46:19.910Z,3.71
2017-12-10T13:48:54.069Z,3.61
2017-12-10T13:51:28.882Z,3.64
2017-12-10T13:54:02.967Z,3.49
2017-12-10T13:56:37.386Z,3.60
2017-12-10T13:59:11.896Z,3.55
2017-12-10T14:01:46.947Z,3.49
2017-12-10T14:04:21.232Z,3.40
2017-12-10T14:06:55.430Z,3.36
2017-12-10T14:09:29.793Z,3.33
2017-12-10T14:12:04.634Z,3.28
2017-12-10T14:14:38.807Z,3.37
2017-12-10T14:17:12.854Z,3.24
2017-12-10T14:19:47.354Z,3.31
2017-12-10T14:22:21.259Z,3.30
2017-12-10T14:24:55.561Z,3.30
2017-12-10T14:27:29.581Z,3.24
2017-12-10T14:32:44.082Z,3.21
2017-12-10T14:35:18.517Z,3.14
2017-12-10T14:37:52.642Z,2.99
2017-12-10T14:40:26.839Z,3.10
2017-12-10T14:43:02.014Z,3.08
2017-12-10T14:45:36.288Z,3.04
2017-12-10T14:48:10.937Z,3.05
2017-12-10T14:50:44.974Z,3.04
2017-12-10T14:53:19.455Z,2.99
2017-12-10T14:55:53.890Z,2.95
2017-12-10T14:58:28.082Z,2.95
2017-12-10T15:01:02.378Z,2.99
2017-12-10T15:03:36.337Z,2.95
2017-12-10T15:06:10.931Z,2.94
2017-12-10T15:08:45.430Z,3.01
2017-12-10T15:11:19.467Z,3.03
2017-12-10T15:13:53.655Z,2.99
2017-12-10T15:16:27.693Z,3.03
2017-12-10T15:19:02.662Z,3.08
2017-12-10T15:21:36.777Z,3.07
2017-12-10T15:24:10.902Z,3.21
2017-12-10T15:26:45.027Z,3.19
2017-12-10T15:29:19.517Z,3.15
2017-12-10T15:31:53.887Z,3.28
2017-12-10T15:34:28.357Z,3.18
2017-12-10T15:37:02.503Z,3.15
2017-12-10T15:39:37.070Z,3.26
2017-12-10T15:42:11.201Z,3.33
2017-12-10T15:44:45.321Z,3.33
2017-12-10T15:47:19.410Z,3.32
2017-12-10T15:49:53.885Z,3.45
2017-12-10T15:52:28.047Z,3.52
2017-12-10T15:55:02.409Z,3.51
2017-12-10T15:57:41.120Z,3.64
2017-12-10T16:00:15.163Z,3.64
2017-12-10T16:02:49.644Z,3.59
2017-12-10T16:05:23.702Z,3.63
2017-12-10T16:07:57.822Z,3.50
2017-12-10T16:10:31.894Z,3.68
2017-12-10T16:13:06.106Z,3.76
2017-12-10T16:15:40.178Z,3.73
2017-12-10T16:18:14.394Z,3.81
2017-12-10T16:20:48.676Z,3.82
2017-12-10T16:23:22.951Z,3.90
2017-12-10T16:25:57.357Z,3.94
2017-12-10T16:28:31.528Z,4.02
2017-12-10T16:31:05.582Z,4.05
2017-12-10T16:33:39.825Z,4.03
2017-12-10T16:36:14.270Z,4.10
2017-12-10T16:38:48.421Z,4.21
2017-12-10T16:41:22.430Z,4.29
2017-12-10T16:43:56.868Z,4.36
2017-12-10T16:46:30.952Z,4.38
2017-12-10T16:49:05.109Z,4.42
2017-12-10T16:51:39.220Z,4.46
2017-12-10T16:54:13.539Z,4.52
2017-12-10T16:56:47.870Z,4.45
2017-12-10T16:59:22.356Z,4.57
2017-12-10T17:01:56.746Z,4.73
2017-12-10T17:04:30.661Z,4.83
2017-12-10T17:07:04.655Z,4.88
2017-12-10T17:09:38.890Z,4.90
2017-12-10T17:12:13.314Z,4.80
2017-12-10T17:14:47.515Z,4.88
2017-12-10T17:17:21.652Z,4.72
2017-12-10T17:19:55.890Z,5.15
2017-12-10T17:22:29.937Z,4.95
2017-12-10T17:27:44.016Z,5.01
2017-12-10T17:30:18.394Z,5.03
2017-12-10T17:32:52.483Z,5.15
2017-12-10T17:35:26.639Z,5.13
2017-12-10T17:38:00.755Z,5.43
2017-12-10T17:40:34.943Z,5.50
2017-12-10T17:43:09.502Z,5.31
2017-12-10T17:45:44.848Z,5.64
2017-12-10T17:48:19.803Z,5.61
2017-12-10T17:50:53.919Z,5.47
2017-12-10T17:53:28.403Z,5.35
2017-12-10T17:56:02.258Z,5.33
2017-12-10T17:58:36.450Z,4.57
2017-12-10T18:01:10.479Z,5.22
2017-12-10T18:03:44.661Z,5.24
2017-12-10T18:06:19.049Z,5.19
2017-12-10T18:08:53.372Z,5.29
2017-12-10T18:11:27.550Z,5.20
2017-12-10T18:14:01.656Z,5.27
2017-12-10T18:16:35.654Z,5.15
2017-12-10T18:19:09.698Z,5.02
2017-12-10T18:21:43.836Z,5.00
2017-12-10T18:24:18.105Z,5.12
2017-12-10T18:26:52.510Z,5.05
2017-12-10T18:29:26.710Z,5.09
2017-12-10T18:32:01.076Z,5.10
2017-12-10T18:34:35.206Z,5.21
2017-12-10T18:37:09.382Z,5.13
2017-12-10T18:39:43.721Z,4.95
2017-12-10T18:42:17.776Z,5.10
2017-12-10T18:44:51.793Z,4.90
2017-12-10T18:47:26.230Z,5.00
2017-12-10T18:50:00.421Z,4.91
2017-12-10T18:52:34.530Z,4.99
2017-12-10T18:55:11.963Z,5.02
2017-12-10T18:57:46.082Z,4.94
2017-12-10T19:00:20.247Z,4.93
2017-12-10T19:02:54.638Z,4.85
2017-12-10T19:05:29.074Z,4.76
2017-12-10T19:08:03.102Z,4.64
2017-12-10T19:10:37.222Z,4.48
2017-12-10T19:13:11.784Z,4.48
2017-12-10T19:15:46.085Z,4.44
2017-12-10T19:18:20.251Z,4.33
2017-12-10T19:20:54.370Z,4.36
2017-12-10T19:23:28.866Z,4.51
2017-12-10T19:26:03.015Z,4.55
2017-12-10T19:28:37.153Z,4.70
2017-12-10T19:31:11.199Z,4.64
2017-12-10T19:33:45.619Z,4.71
2017-12-10T19:36:20.007Z,4.81
2017-12-10T19:38:54.074Z,4.78
2017-12-10T19:41:28.219Z,4.76
2017-12-10T19:44:02.341Z,4.93
2017-12-10T19:46:36.590Z,4.93
2017-12-10T19:49:10.737Z,4.98
2017-12-10T19:51:44.817Z,4.96
2017-12-10T19:54:18.906Z,5.02
2017-12-10T19:56:52.974Z,4.99
2017-12-10T19:59:27.358Z,5.09
2017-12-10T20:02:01.494Z,5.07
2017-12-10T20:04:35.508Z,5.22
2017-12-10T20:07:09.530Z,5.12
2017-12-10T20:09:43.741Z,5.10
2017-12-10T20:12:17.915Z,5.03
2017-12-10T20:14:51.938Z,5.00
2017-12-10T20:17:25.950Z,4.97
2017-12-10T20:20:00.513Z,4.79
2017-12-10T20:22:34.559Z,4.89
2017-12-10T20:25:10.575Z,4.75
2017-12-10T20:27:44.776Z,4.69
2017-12-10T20:30:19.038Z,4.83
2017-12-10T20:32:53.582Z,5.08
2017-12-10T20:35:27.606Z,4.73
2017-12-10T20:38:01.853Z,4.83
2017-12-10T20:40:35.922Z,4.47
2017-12-10T20:43:10.117Z,4.38
2017-12-10T20:45:44.654Z,4.17
2017-12-10T20:48:18.670Z,4.00
2017-12-10T20:50:52.790Z,3.69
2017-12-10T20:53:27.044Z,3.52
2017-12-10T20:56:01.094Z,3.34
2017-12-10T20:58:35.234Z,3.26
2017-12-10T21:01:09.701Z,3.23
2017-12-10T21:03:43.853Z,3.56
2017-12-10T21:06:17.962Z,3.92
2017-12-10T21:08:52.538Z,4.66
2017-12-10T21:11:26.894Z,5.23
2017-12-10T21:14:01.082Z,5.53
2017-12-10T21:16:35.210Z,5.84
2017-12-10T21:19:09.438Z,6.08
2017-12-10T21:21:43.486Z,6.14
2017-12-10T21:24:18.102Z,6.11
2017-12-10T21:26:52.138Z,6.04
2017-12-10T21:29:26.290Z,6.03
2017-12-10T21:32:00.345Z,5.96
2017-12-10T21:34:34.457Z,5.88
2017-12-10T21:37:08.486Z,5.77
2017-12-10T21:39:42.758Z,5.62
2017-12-10T21:42:17.152Z,5.59
2017-12-10T21:44:51.222Z,5.52
2017-12-10T21:47:25.252Z,5.40
2017-12-10T21:49:59.286Z,5.35
2017-12-10T21:52:33.693Z,5.29
2017-12-10T21:55:14.857Z,5.28
2017-12-10T21:57:49.090Z,5.23
2017-12-10T22:00:23.167Z,5.20
2017-12-10T22:02:57.298Z,5.15
2017-12-10T22:05:31.726Z,5.08
2017-12-10T22:08:06.153Z,5.06
2017-12-10T22:10:40.622Z,4.64
2017-12-10T22:13:15.143Z,5.07
2017-12-10T22:15:49.197Z,5.05
2017-12-10T22:18:23.455Z,5.12
2017-12-10T22:20:57.558Z,5.17
2017-12-10T22:23:31.734Z,5.21
2017-12-10T22:26:05.778Z,5.22
2017-12-10T22:28:39.833Z,5.16
2017-12-10T22:31:14.235Z,5.14
2017-12-10T22:33:48.394Z,5.18
2017-12-10T22:36:22.414Z,5.25
2017-12-10T22:38:56.545Z,5.26
2017-12-10T22:41:30.625Z,5.24
2017-12-10T22:44:05.010Z,5.24
2017-12-10T22:46:39.458Z,5.26
2017-12-10T22:49:13.997Z,5.32
2017-12-10T22:51:48.414Z,5.30
2017-12-10T22:54:23.054Z,5.15
2017-12-10T22:56:57.536Z,5.12
2017-12-10T22:59:31.939Z,5.11
2017-12-10T23:02:06.330Z,4.94
2017-12-10T23:04:41.403Z,4.83
2017-12-10T23:07:15.954Z,4.79
2017-12-10T23:09:50.449Z,4.78
2017-12-10T23:12:24.902Z,4.80
2017-12-10T23:15:10.641Z,4.81
2017-12-10T23:17:45.197Z,4.87
2017-12-10T23:20:26.588Z,4.92
2017-12-10T23:23:00.970Z,4.98
2017-12-10T23:25:35.362Z,4.94
2017-12-10T23:28:09.549Z,4.74
2017-12-10T23:30:43.582Z,4.94
2017-12-10T23:33:17.775Z,4.89
2017-12-10T23:35:51.921Z,4.87
2017-12-10T23:38:27.014Z,4.67
2017-12-10T23:41:01.486Z,4.56
2017-12-10T23:43:36.225Z,4.51
2017-12-10T23:46:10.314Z,4.55
2017-12-10T23:48:44.725Z,4.47
2017-12-10T23:51:19.134Z,4.35
2017-12-10T23:53:53.658Z,4.34
2017-12-10T23:56:28.066Z,4.37
2017-12-10T23:59:02.401Z,4.40
